Time;durP1;ratioP1;P1;durP2;ratioP2;P2;SDS_P1;SDS_P2;PMS_P1;PMS_P2;Temp;Humidity;BMP_temperature;BMP_pressure;BME280_temperature;BME280_humidity;BME280_pressure;Samples;Min_cycle;Max_cycle;Signal;HPM_P1;HPM_P2
2022/10/19 00:00:27;;;;;;;6.15;2.00;;;9.30;99.90;;;;;;4982182;28;20034;-69
2022/10/19 00:02:52;;;;;;;6.75;1.60;;;9.30;99.90;;;;;;4978128;28;20031;-71
2022/10/19 00:05:18;;;;;;;4.40;1.80;;;9.30;99.90;;;;;;4976184;28;20030;-69
2022/10/19 00:07:43;;;;;;;5.63;1.30;;;9.30;99.90;;;;;;4979988;28;20188;-69
2022/10/19 00:10:09;;;;;;;7.30;1.83;;;9.30;99.90;;;;;;4975074;28;20387;-70
2022/10/19 00:12:35;;;;;;;5.55;1.98;;;9.20;99.90;;;;;;4972843;28;20043;-71
2022/10/19 00:15:01;;;;;;;10.40;2.25;;;9.20;99.90;;;;;;4975075;28;20092;-71
2022/10/19 00:17:26;;;;;;;6.15;2.17;;;9.20;99.90;;;;;;4977967;28;20039;-71
2022/10/19 00:19:52;;;;;;;3.83;1.65;;;9.20;99.90;;;;;;4978912;28;20061;-71
2022/10/19 00:22:18;;;;;;;7.93;1.85;;;9.20;99.90;;;;;;4976096;28;20043;-70
2022/10/19 00:24:43;;;;;;;5.50;1.73;;;9.20;99.90;;;;;;4979198;28;20621;-70
2022/10/19 00:27:09;;;;;;;4.38;2.05;;;9.20;99.90;;;;;;4977692;28;20446;-69
2022/10/19 00:29:35;;;;;;;10.95;2.47;;;9.20;99.90;;;;;;4980846;28;20031;-69
2022/10/19 00:32:00;;;;;;;5.78;1.63;;;9.30;99.90;;;;;;4976285;28;20490;-70
2022/10/19 00:34:26;;;;;;;5.90;1.77;;;9.30;99.90;;;;;;4973320;28;20049;-69
2022/10/19 00:36:51;;;;;;;8.10;2.67;;;9.30;99.90;;;;;;4981596;28;20121;-69
2022/10/19 00:39:17;;;;;;;5.93;2.15;;;9.30;99.90;;;;;;4975561;28;20038;-71
2022/10/19 00:41:46;;;;;;;4.97;1.67;;;9.30;99.90;;;;;;4970601;28;20037;-70
2022/10/19 00:44:11;;;;;;;9.23;2.17;;;9.30;99.90;;;;;;4978352;28;20049;-70
2022/10/19 00:46:40;;;;;;;6.38;2.65;;;9.30;99.90;;;;;;4980095;28;20047;-70
2022/10/19 00:49:16;;;;;;;7.05;2.60;;;9.30;99.90;;;;;;4978203;28;20035;-71
2022/10/19 00:51:45;;;;;;;9.57;2.92;;;9.40;99.90;;;;;;4975653;28;20058;-70
2022/10/19 00:54:12;;;;;;;6.32;2.35;;;9.40;99.90;;;;;;4982295;28;20546;-71
2022/10/19 00:56:41;;;;;;;4.65;1.77;;;9.40;99.90;;;;;;4979284;28;20122;-71
2022/10/19 00:59:07;;;;;;;4.72;2.08;;;9.50;99.90;;;;;;4977734;28;20046;-71
2022/10/19 01:01:34;;;;;;;6.28;2.33;;;9.50;99.90;;;;;;4975176;28;20034;-71
2022/10/19 01:04:00;;;;;;;7.57;2.90;;;9.50;99.90;;;;;;4976414;28;20097;-71
2022/10/19 01:06:26;;;;;;;9.07;2.90;;;9.50;99.90;;;;;;4979451;28;20034;-69
2022/10/19 01:08:51;;;;;;;11.00;3.20;;;9.50;99.90;;;;;;4977972;28;20030;-70
2022/10/19 01:11:38;;;;;;;7.93;2.78;;;9.50;99.90;;;;;;4973590;28;20125;-70
2022/10/19 01:14:20;;;;;;;6.38;2.50;;;9.50;99.90;;;;;;4975058;28;20066;-69
2022/10/19 01:17:02;;;;;;;6.03;2.63;;;9.50;99.90;;;;;;4979163;28;20061;-71
2022/10/19 01:19:31;;;;;;;7.20;2.13;;;9.40;99.90;;;;;;4975947;28;20030;-69
2022/10/19 01:22:21;;;;;;;8.80;2.75;;;9.30;99.90;;;;;;4977400;28;20043;-70
2022/10/19 01:25:11;;;;;;;4.07;1.93;;;9.30;99.90;;;;;;4972641;28;20035;-69
2022/10/19 01:28:04;;;;;;;4.60;2.17;;;9.20;99.90;;;;;;4970994;28;20282;-71
2022/10/19 01:30:35;;;;;;;8.60;2.17;;;9.10;99.90;;;;;;4976206;28;20050;-71
2022/10/19 01:33:19;;;;;;;5.57;2.10;;;9.00;99.90;;;;;;4974404;28;20225;-71
2022/10/19 01:35:48;;;;;;;6.28;2.92;;;9.00;99.90;;;;;;4972513;28;20499;-70
2022/10/19 01:38:52;;;;;;;5.40;2.03;;;9.00;99.90;;;;;;4979447;28;20037;-69
2022/10/19 01:41:26;;;;;;;7.22;2.78;;;8.90;99.90;;;;;;4912931;29;20043;-70
2022/10/19 01:44:00;;;;;;;11.40;3.15;;;8.80;99.90;;;;;;4938549;29;20131;-70
2022/10/19 01:46:41;;;;;;;5.78;2.50;;;8.80;99.90;;;;;;4961268;28;20086;-69
2022/10/19 01:49:15;;;;;;;;;;;8.80;99.90;;;;;;4978666;28;20041;-70
2022/10/19 01:51:50;;;;;;;9.63;2.92;;;8.70;99.90;;;;;;4975515;28;19984;-70
2022/10/19 01:54:17;;;;;;;6.82;2.45;;;8.70;99.90;;;;;;4966359;28;20030;-69
2022/10/19 01:56:46;;;;;;;6.00;2.75;;;8.60;99.90;;;;;;4977658;28;20503;-69
2022/10/19 01:59:14;;;;;;;5.63;2.30;;;8.60;99.90;;;;;;4973804;28;20431;-70
2022/10/19 02:01:44;;;;;;;8.23;2.53;;;8.50;99.90;;;;;;4979004;28;20031;-70
2022/10/19 02:04:13;;;;;;;7.40;2.65;;;8.50;99.90;;;;;;4969183;28;20854;-70
2022/10/19 02:06:39;;;;;;;7.10;2.58;;;8.40;99.90;;;;;;4970183;28;20038;-71
2022/10/19 02:09:04;;;;;;;11.98;2.50;;;8.40;99.90;;;;;;4976542;28;20034;-70
2022/10/19 02:11:31;;;;;;;7.05;2.80;;;8.40;99.90;;;;;;4975090;28;20039;-71
2022/10/19 02:14:05;;;;;;;5.32;2.33;;;8.40;99.90;;;;;;4972268;28;20662;-69
2022/10/19 02:16:41;;;;;;;7.13;2.65;;;8.40;99.90;;;;;;4973548;28;20514;-69
2022/10/19 02:19:08;;;;;;;6.00;2.30;;;8.30;99.90;;;;;;4968424;28;20030;-70
2022/10/19 02:21:34;;;;;;;8.25;2.80;;;8.30;99.90;;;;;;4978084;28;20031;-70
2022/10/19 02:24:00;;;;;;;4.40;2.33;;;8.30;99.90;;;;;;4968757;28;20069;-70
2022/10/19 02:26:26;;;;;;;4.53;1.95;;;8.30;99.90;;;;;;4981146;28;20026;-70
2022/10/19 02:28:54;;;;;;;5.45;2.10;;;8.30;99.90;;;;;;4977875;28;20455;-70
2022/10/19 02:31:20;;;;;;;7.32;2.10;;;8.30;99.90;;;;;;4975928;28;20471;-69
2022/10/19 02:33:46;;;;;;;7.60;1.98;;;8.20;99.90;;;;;;4977411;28;20038;-70
2022/10/19 02:36:12;;;;;;;6.63;2.25;;;8.20;99.90;;;;;;4973397;28;20034;-70
2022/10/19 02:38:40;;;;;;;8.45;2.28;;;8.20;99.90;;;;;;4977095;28;20450;-70
2022/10/19 02:41:10;;;;;;;7.95;1.65;;;8.20;99.90;;;;;;4980920;28;20046;-70
2022/10/19 02:43:38;;;;;;;8.03;2.60;;;8.20;99.90;;;;;;4968651;28;20070;-70
2022/10/19 02:46:29;;;;;;;4.05;1.38;;;8.20;99.90;;;;;;4972970;28;20117;-70
2022/10/19 02:48:56;;;;;;;5.13;1.48;;;8.30;99.90;;;;;;4964760;28;20034;-70
2022/10/19 02:51:37;;;;;;;5.60;1.55;;;8.30;99.90;;;;;;4978219;28;20047;-69
2022/10/19 02:54:03;;;;;;;;;;;8.30;99.90;;;;;;4973743;28;20058;-70
2022/10/19 02:56:29;;;;;;;5.07;1.30;;;8.30;99.90;;;;;;4970735;28;19914;-70
2022/10/19 02:58:55;;;;;;;8.88;1.38;;;8.40;99.90;;;;;;4972174;28;20038;-69
2022/10/19 03:01:21;;;;;;;3.50;1.35;;;8.40;99.90;;;;;;4974320;28;20181;-71
2022/10/19 03:03:46;;;;;;;6.47;1.98;;;8.50;99.90;;;;;;4968934;28;20572;-70
2022/10/19 03:06:12;;;;;;;6.10;1.10;;;8.60;99.90;;;;;;4973003;28;20031;-70
2022/10/19 03:08:38;;;;;;;3.15;1.20;;;8.60;99.90;;;;;;4977875;28;20030;-70
2022/10/19 03:11:04;;;;;;;3.83;1.05;;;8.70;99.90;;;;;;4975879;28;20134;-71
2022/10/19 03:13:29;;;;;;;5.50;1.30;;;8.70;99.90;;;;;;4984189;28;20053;-70
2022/10/19 03:15:55;;;;;;;6.20;1.63;;;8.70;99.90;;;;;;4978325;28;20038;-69
2022/10/19 03:18:21;;;;;;;4.30;1.20;;;8.70;99.90;;;;;;4978913;28;20086;-69
2022/10/19 03:20:46;;;;;;;3.80;1.15;;;8.80;99.90;;;;;;4976929;28;20035;-70
2022/10/19 03:23:12;;;;;;;24.30;1.30;;;8.80;99.90;;;;;;4980106;28;20023;-69
2022/10/19 03:25:37;;;;;;;3.90;1.13;;;8.80;99.90;;;;;;4977310;28;20054;-69
2022/10/19 03:28:03;;;;;;;6.03;1.30;;;8.80;99.90;;;;;;4981123;28;20033;-69
2022/10/19 03:30:28;;;;;;;6.57;1.15;;;8.80;99.90;;;;;;4976937;28;20072;-69
2022/10/19 03:32:54;;;;;;;4.78;1.27;;;8.80;99.90;;;;;;4980120;28;20062;-71
2022/10/19 03:35:19;;;;;;;2.72;1.23;;;8.90;99.90;;;;;;4978671;28;20066;-71
2022/10/19 03:37:45;;;;;;;5.53;1.23;;;8.90;99.90;;;;;;4978933;28;20541;-69
2022/10/19 03:40:11;;;;;;;7.00;1.67;;;8.90;99.90;;;;;;4984681;28;20034;-71
2022/10/19 03:42:36;;;;;;;3.22;1.33;;;8.90;99.90;;;;;;4979193;28;20034;-70
2022/10/19 03:45:02;;;;;;;2.47;1.10;;;8.90;99.90;;;;;;4972515;28;20642;-70
2022/10/19 03:47:28;;;;;;;8.73;1.50;;;8.90;99.90;;;;;;4976000;28;20038;-70
2022/10/19 03:49:53;;;;;;;7.50;1.20;;;8.90;99.90;;;;;;4979044;28;20044;-71
2022/10/19 03:52:19;;;;;;;4.97;1.35;;;8.90;99.90;;;;;;4981407;28;20082;-70
2022/10/19 03:54:48;;;;;;;4.80;1.02;;;8.80;99.90;;;;;;4978843;28;20042;-70
2022/10/19 03:57:13;;;;;;;3.95;1.15;;;8.90;99.90;;;;;;4975637;28;20039;-70
2022/10/19 03:59:39;;;;;;;5.93;1.48;;;8.90;99.90;;;;;;4973906;28;20084;-70
2022/10/19 04:02:05;;;;;;;3.70;1.40;;;8.90;99.90;;;;;;4979922;28;20097;-72
2022/10/19 04:04:30;;;;;;;5.75;1.02;;;8.90;99.90;;;;;;4978490;28;20042;-71
2022/10/19 04:06:56;;;;;;;4.43;1.27;;;8.80;99.90;;;;;;4971853;28;20468;-72
2022/10/19 04:09:22;;;;;;;4.50;0.90;;;8.80;99.90;;;;;;4978907;28;20043;-70
2022/10/19 04:11:48;;;;;;;8.48;1.08;;;8.80;99.90;;;;;;4974076;28;20560;-70
2022/10/19 04:14:16;;;;;;;9.10;1.05;;;8.80;99.90;;;;;;4976327;28;20030;-70
2022/10/19 04:16:41;;;;;;;3.72;1.40;;;8.80;99.90;;;;;;4977115;28;20034;-70
2022/10/19 04:19:07;;;;;;;6.22;1.30;;;8.80;99.90;;;;;;4973848;28;20081;-70
2022/10/19 04:21:36;;;;;;;4.50;1.10;;;8.80;99.90;;;;;;4979355;28;20542;-71
2022/10/19 04:24:14;;;;;;;5.45;0.88;;;8.80;99.90;;;;;;4978655;28;20129;-71
2022/10/19 04:26:47;;;;;;;4.80;1.08;;;8.70;99.90;;;;;;4968060;28;20043;-70
2022/10/19 04:29:14;;;;;;;5.40;1.10;;;8.80;99.90;;;;;;4972163;28;20049;-70
2022/10/19 04:31:40;;;;;;;5.13;1.00;;;8.70;99.90;;;;;;4986777;28;20045;-71
2022/10/19 04:34:06;;;;;;;5.20;1.40;;;8.70;99.90;;;;;;4978083;28;20395;-71
2022/10/19 04:36:32;;;;;;;4.10;1.17;;;8.70;99.90;;;;;;4980618;28;20042;-70
2022/10/19 04:38:57;;;;;;;7.40;1.20;;;8.70;99.90;;;;;;4973393;28;20105;-71
2022/10/19 04:41:23;;;;;;;3.90;1.13;;;8.70;99.90;;;;;;4978473;28;20453;-70
2022/10/19 04:43:54;;;;;;;3.40;1.20;;;8.70;99.90;;;;;;4978750;28;20052;-70
2022/10/19 04:46:20;;;;;;;6.60;1.02;;;8.80;99.90;;;;;;4977229;28;20035;-70
2022/10/19 04:48:47;;;;;;;5.22;1.52;;;8.70;99.90;;;;;;4979843;28;20050;-68
2022/10/19 04:51:13;;;;;;;3.35;0.80;;;8.80;99.90;;;;;;4981091;28;20026;-70
2022/10/19 04:53:40;;;;;;;2.22;1.00;;;8.80;99.90;;;;;;4977789;28;20026;-70
2022/10/19 04:56:07;;;;;;;4.47;0.70;;;8.80;99.90;;;;;;4978399;28;20057;-70
2022/10/19 04:58:33;;;;;;;5.47;1.45;;;8.80;99.90;;;;;;4976159;28;20537;-70
2022/10/19 05:01:05;;;;;;;4.25;0.73;;;8.70;99.90;;;;;;4972574;28;20034;-70
2022/10/19 05:03:31;;;;;;;3.88;0.55;;;8.70;99.90;;;;;;4973509;28;20026;-69
2022/10/19 05:05:58;;;;;;;6.65;1.77;;;8.80;99.90;;;;;;4979205;28;20062;-69
2022/10/19 05:08:23;;;;;;;6.43;1.00;;;8.80;99.90;;;;;;4978862;28;20034;-70
2022/10/19 05:10:49;;;;;;;4.15;1.30;;;8.70;99.90;;;;;;4981929;28;20089;-69
2022/10/19 05:13:14;;;;;;;6.43;1.05;;;8.80;99.90;;;;;;4984400;28;20191;-70
2022/10/19 05:15:40;;;;;;;6.10;0.90;;;8.80;99.90;;;;;;4982489;28;20022;-70
2022/10/19 05:18:06;;;;;;;4.95;1.05;;;8.80;99.90;;;;;;4977773;28;20030;-69
2022/10/19 05:20:31;;;;;;;4.32;0.98;;;8.80;99.90;;;;;;4975040;28;20041;-70
2022/10/19 05:22:57;;;;;;;3.95;1.20;;;8.80;99.90;;;;;;4975275;28;20466;-70
2022/10/19 05:25:22;;;;;;;1.52;0.65;;;8.80;99.90;;;;;;4980476;28;20069;-69
2022/10/19 05:27:52;;;;;;;3.45;0.80;;;8.70;99.90;;;;;;4981044;28;20034;-70
2022/10/19 05:30:20;;;;;;;4.75;1.63;;;8.70;99.90;;;;;;4976191;28;20042;-70
2022/10/19 05:32:46;;;;;;;3.25;0.90;;;8.70;99.90;;;;;;4978458;28;20030;-70
2022/10/19 05:35:12;;;;;;;1.50;0.80;;;8.70;99.90;;;;;;4974539;28;20047;-70
2022/10/19 05:37:38;;;;;;;5.18;0.82;;;8.60;99.90;;;;;;4986808;28;20042;-71
2022/10/19 05:40:04;;;;;;;4.35;1.23;;;8.60;99.90;;;;;;4964631;28;20404;-71
2022/10/19 05:42:29;;;;;;;4.55;1.45;;;8.50;99.90;;;;;;4969220;28;20041;-71
2022/10/19 05:44:55;;;;;;;4.38;1.08;;;8.50;99.90;;;;;;4968894;28;20050;-72
2022/10/19 05:47:20;;;;;;;7.68;1.05;;;8.40;99.90;;;;;;4969053;28;20039;-70
2022/10/19 05:49:46;;;;;;;4.47;0.88;;;8.40;99.90;;;;;;4967789;28;20768;-69
2022/10/19 05:52:12;;;;;;;3.83;0.80;;;8.30;99.90;;;;;;4967701;28;20043;-71
2022/10/19 05:54:38;;;;;;;5.18;0.90;;;8.30;99.90;;;;;;4968905;28;20109;-69
2022/10/19 05:57:03;;;;;;;3.10;0.80;;;8.30;99.90;;;;;;4970617;28;20046;-70
2022/10/19 05:59:29;;;;;;;6.60;0.68;;;8.20;99.90;;;;;;4971375;28;20454;-69
2022/10/19 06:01:55;;;;;;;2.33;0.60;;;8.20;99.90;;;;;;4967968;28;20406;-69
2022/10/19 06:04:21;;;;;;;4.38;0.70;;;8.20;99.90;;;;;;4969040;28;20100;-70
2022/10/19 06:06:46;;;;;;;2.72;1.20;;;8.20;99.90;;;;;;4972289;28;20399;-70
2022/10/19 06:09:12;;;;;;;5.22;0.75;;;8.20;99.90;;;;;;4969399;28;20058;-69
2022/10/19 06:11:40;;;;;;;6.72;1.15;;;8.20;99.90;;;;;;4972912;28;20201;-71
2022/10/19 06:14:09;;;;;;;1.63;0.82;;;8.20;99.90;;;;;;4970227;28;20050;-69
2022/10/19 06:16:35;;;;;;;6.05;1.58;;;8.20;99.90;;;;;;4964237;28;20522;-71
2022/10/19 06:19:01;;;;;;;3.15;0.98;;;8.10;99.90;;;;;;4968594;28;20050;-69
2022/10/19 06:21:29;;;;;;;1.33;0.73;;;8.10;99.90;;;;;;4965245;28;20178;-70
2022/10/19 06:23:59;;;;;;;2.83;0.90;;;8.00;99.90;;;;;;4965326;28;20835;-71
2022/10/19 06:26:26;;;;;;;3.85;0.90;;;8.00;99.90;;;;;;4969951;28;20116;-69
2022/10/19 06:28:59;;;;;;;1.75;0.82;;;8.00;99.90;;;;;;4971854;28;20035;-71
2022/10/19 06:31:25;;;;;;;3.53;1.02;;;8.00;99.90;;;;;;4968771;28;20121;-69
2022/10/19 06:33:51;;;;;;;4.30;1.25;;;8.00;99.90;;;;;;4966181;28;20522;-69
2022/10/19 06:36:21;;;;;;;3.25;1.65;;;7.90;99.90;;;;;;4970658;28;20031;-69
2022/10/19 06:38:47;;;;;;;;;;;7.90;99.90;;;;;;4970368;28;20800;-70
2022/10/19 06:41:13;;;;;;;5.50;1.25;;;7.90;99.90;;;;;;4971517;28;19953;-70
2022/10/19 06:43:39;;;;;;;5.18;0.90;;;7.90;99.90;;;;;;4966376;28;20043;-71
2022/10/19 06:46:14;;;;;;;5.65;1.65;;;8.00;99.90;;;;;;4975876;28;20485;-70
2022/10/19 06:48:40;;;;;;;5.15;1.35;;;8.10;99.90;;;;;;4975164;28;20042;-71
2022/10/19 06:51:08;;;;;;;5.65;0.80;;;8.10;99.90;;;;;;4970659;28;20066;-71
2022/10/19 06:53:35;;;;;;;5.45;1.13;;;8.20;99.90;;;;;;4976459;28;20086;-70
2022/10/19 06:56:02;;;;;;;7.13;1.73;;;8.20;99.90;;;;;;4974211;28;20034;-71
2022/10/19 06:58:28;;;;;;;3.30;1.13;;;8.30;99.90;;;;;;4974497;28;20054;-70
2022/10/19 07:00:55;;;;;;;3.50;0.85;;;8.30;99.90;;;;;;4974385;28;20483;-71
2022/10/19 07:03:22;;;;;;;7.07;1.25;;;8.40;99.90;;;;;;4975843;28;20042;-70
2022/10/19 07:05:55;;;;;;;7.57;1.33;;;8.50;99.90;;;;;;4968209;28;20034;-71
2022/10/19 07:08:21;;;;;;;4.30;1.45;;;8.60;99.90;;;;;;4973610;28;20507;-71
2022/10/19 07:10:58;;;;;;;9.18;0.80;;;8.60;99.90;;;;;;4973799;28;20030;-71
2022/10/19 07:13:25;;;;;;;5.82;1.00;;;8.70;99.90;;;;;;4970756;28;20495;-71
2022/10/19 07:16:00;;;;;;;10.73;0.95;;;8.80;99.90;;;;;;4970053;28;20030;-71
2022/10/19 07:18:26;;;;;;;9.65;1.30;;;8.80;99.90;;;;;;4972889;28;20046;-71
2022/10/19 07:21:00;;;;;;;2.35;0.60;;;8.90;99.90;;;;;;4972957;28;20034;-70
2022/10/19 07:23:27;;;;;;;2.75;1.05;;;8.90;99.90;;;;;;4972102;28;20053;-71
2022/10/19 07:25:54;;;;;;;2.05;0.60;;;9.00;99.90;;;;;;4970210;28;20360;-71
2022/10/19 07:28:20;;;;;;;3.78;1.08;;;9.00;99.90;;;;;;4974600;28;20573;-71
2022/10/19 07:30:46;;;;;;;7.07;0.73;;;9.10;99.90;;;;;;4971265;28;20038;-71
2022/10/19 07:33:12;;;;;;;5.32;0.98;;;9.20;99.90;;;;;;4970868;28;20090;-71
2022/10/19 07:35:37;;;;;;;1.73;0.68;;;9.20;99.90;;;;;;4975188;28;20539;-72
2022/10/19 07:38:03;;;;;;;4.70;0.75;;;9.30;99.90;;;;;;4975576;28;20034;-71
2022/10/19 07:40:28;;;;;;;4.88;1.50;;;9.40;99.90;;;;;;4970432;28;20101;-70
2022/10/19 07:42:54;;;;;;;3.00;0.70;;;9.50;99.90;;;;;;4974039;28;20039;-70
2022/10/19 07:45:19;;;;;;;3.13;0.70;;;9.50;99.90;;;;;;4971956;28;20059;-70
2022/10/19 07:47:45;;;;;;;6.65;1.58;;;9.60;99.90;;;;;;4967973;28;20080;-69
2022/10/19 07:50:11;;;;;;;2.67;0.73;;;9.70;99.90;;;;;;4971840;28;20039;-69
2022/10/19 07:52:36;;;;;;;5.90;1.58;;;9.70;99.90;;;;;;4970014;28;20077;-69
2022/10/19 07:55:02;;;;;;;7.00;1.35;;;9.80;99.90;;;;;;4971638;28;20030;-69
2022/10/19 07:57:27;;;;;;;3.33;0.60;;;9.90;99.90;;;;;;4973635;28;20712;-69
2022/10/19 07:59:53;;;;;;;2.55;0.90;;;9.90;99.90;;;;;;4978131;28;20026;-69
2022/10/19 08:02:19;;;;;;;8.13;2.10;;;10.00;99.90;;;;;;4972479;28;20042;-70
2022/10/19 08:04:44;;;;;;;7.28;0.70;;;10.10;99.90;;;;;;4972361;28;20039;-68
2022/10/19 08:07:10;;;;;;;3.05;1.10;;;10.30;99.90;;;;;;4976736;28;20041;-69
2022/10/19 08:09:36;;;;;;;3.92;0.47;;;10.40;99.90;;;;;;4977204;28;20625;-69
2022/10/19 08:12:03;;;;;;;3.22;0.80;;;10.40;99.90;;;;;;4968425;28;20174;-70
2022/10/19 08:14:28;;;;;;;5.22;0.60;;;10.50;99.90;;;;;;4977166;28;20043;-71
2022/10/19 08:16:54;;;;;;;3.15;0.60;;;10.60;99.90;;;;;;4971580;28;20043;-70
2022/10/19 08:19:21;;;;;;;3.33;0.63;;;10.70;99.90;;;;;;4970764;28;20470;-70
2022/10/19 08:21:47;;;;;;;5.05;1.05;;;10.90;99.90;;;;;;4967219;28;20043;-70
2022/10/19 08:24:14;;;;;;;2.75;0.68;;;10.90;99.90;;;;;;4970080;28;20042;-69
2022/10/19 08:26:40;;;;;;;2.78;0.57;;;11.10;99.90;;;;;;4974439;28;20063;-70
2022/10/19 08:29:13;;;;;;;4.00;0.57;;;11.10;99.90;;;;;;4972920;28;20046;-69
2022/10/19 08:31:40;;;;;;;2.05;0.47;;;11.20;99.90;;;;;;4977342;28;20101;-69
2022/10/19 08:34:06;;;;;;;3.58;0.60;;;11.20;99.90;;;;;;4971729;28;20125;-69
2022/10/19 08:36:34;;;;;;;2.42;0.50;;;11.30;99.90;;;;;;4969430;28;20408;-70
2022/10/19 08:39:00;;;;;;;4.35;0.73;;;11.30;99.90;;;;;;4973797;28;20490;-70
2022/10/19 08:41:45;;;;;;;8.50;0.70;;;11.40;99.90;;;;;;4972783;28;20141;-71
2022/10/19 08:44:18;;;;;;;9.02;0.73;;;11.40;99.90;;;;;;4968544;28;20468;-70
2022/10/19 08:46:59;;;;;;;4.75;0.70;;;11.50;99.90;;;;;;4973365;28;20038;-72
2022/10/19 08:49:27;;;;;;;3.22;0.52;;;11.50;99.90;;;;;;4968093;28;20047;-69
2022/10/19 08:51:59;;;;;;;6.47;0.43;;;11.60;99.90;;;;;;4973485;28;20042;-70
2022/10/19 08:54:36;;;;;;;2.17;0.45;;;11.70;99.90;;;;;;4973397;28;20048;-70
2022/10/19 08:57:23;;;;;;;3.35;0.50;;;11.80;99.90;;;;;;4973154;28;20412;-70
2022/10/19 08:59:58;;;;;;;4.05;0.70;;;11.80;99.90;;;;;;4975737;28;20042;-70
2022/10/19 09:02:47;;;;;;;7.10;0.55;;;11.80;99.90;;;;;;4969433;28;20106;-69
2022/10/19 09:05:31;;;;;;;7.45;0.70;;;12.00;99.90;;;;;;4975860;28;20149;-71
2022/10/19 09:07:58;;;;;;;3.33;0.70;;;12.00;99.90;;;;;;4970970;28;20515;-70
2022/10/19 09:10:36;;;;;;;9.80;1.17;;;12.00;99.90;;;;;;4975764;28;20443;-69
2022/10/19 09:13:32;;;;;;;5.13;0.93;;;12.10;99.90;;;;;;4972037;28;20045;-72
2022/10/19 09:15:59;;;;;;;2.03;0.95;;;12.10;99.90;;;;;;4974207;28;20053;-71
2022/10/19 09:18:28;;;;;;;6.07;0.63;;;12.20;99.90;;;;;;4969750;28;20391;-70
2022/10/19 09:21:26;;;;;;;4.35;0.98;;;12.30;99.90;;;;;;4975901;28;20031;-70
2022/10/19 09:23:58;;;;;;;5.95;0.60;;;12.40;99.90;;;;;;4975040;28;20035;-70
2022/10/19 09:26:52;;;;;;;2.08;0.50;;;12.40;99.90;;;;;;4970090;28;20129;-70
2022/10/19 09:29:41;;;;;;;2.65;0.47;;;12.40;99.90;;;;;;4968400;28;20434;-69
2022/10/19 09:32:17;;;;;;;3.58;0.70;;;12.50;99.90;;;;;;4967605;28;20045;-69
2022/10/19 09:34:53;;;;;;;1.55;0.30;;;12.50;99.90;;;;;;4973448;28;20030;-71
2022/10/19 09:37:20;;;;;;;4.43;0.68;;;12.60;99.90;;;;;;4961846;28;20060;-71
2022/10/19 09:39:46;;;;;;;4.65;0.95;;;12.60;99.90;;;;;;4971310;28;20342;-71
2022/10/19 09:42:29;;;;;;;6.20;1.33;;;12.60;99.90;;;;;;4967026;28;20134;-70
2022/10/19 09:44:55;;;;;;;1.95;0.50;;;12.70;99.90;;;;;;4970895;28;20502;-71
2022/10/19 09:47:35;;;;;;;5.15;0.75;;;12.70;99.90;;;;;;4971573;28;20497;-71
2022/10/19 09:50:23;;;;;;;3.25;0.40;;;12.80;99.90;;;;;;4970620;28;20038;-71
2022/10/19 09:52:54;;;;;;;4.55;1.20;;;12.80;99.90;;;;;;4968544;28;20042;-72
2022/10/19 09:55:40;;;;;;;5.57;0.93;;;12.80;99.90;;;;;;4972285;28;20499;-70
2022/10/19 09:58:17;;;;;;;4.35;1.05;;;12.90;99.90;;;;;;4971013;28;20478;-70
2022/10/19 10:00:54;;;;;;;3.00;0.60;;;12.80;99.90;;;;;;4971094;28;20040;-69
2022/10/19 10:03:34;;;;;;;5.28;0.80;;;12.70;99.90;;;;;;4967778;28;20046;-70
2022/10/19 10:06:07;;;;;;;3.70;0.70;;;12.80;99.90;;;;;;4975049;28;20720;-70
2022/10/19 10:08:36;;;;;;;3.05;0.65;;;12.70;99.90;;;;;;4971001;28;20509;-71
2022/10/19 10:11:11;;;;;;;2.72;0.50;;;12.80;99.90;;;;;;4970623;28;20034;-70
2022/10/19 10:13:48;;;;;;;6.50;1.08;;;12.80;99.90;;;;;;4969590;28;20473;-71
2022/10/19 10:16:16;;;;;;;3.88;0.98;;;12.80;99.90;;;;;;4968379;28;20538;-71
2022/10/19 10:19:05;;;;;;;2.03;0.50;;;12.90;99.90;;;;;;4970939;28;20403;-71
2022/10/19 10:21:53;;;;;;;8.38;1.27;;;12.90;99.90;;;;;;4972415;28;20518;-71
2022/10/19 10:24:21;;;;;;;6.40;0.70;;;13.00;99.90;;;;;;4972799;28;20443;-72
2022/10/19 10:26:56;;;;;;;3.35;0.50;;;13.00;99.90;;;;;;4978993;28;20031;-72
2022/10/19 10:29:31;;;;;;;2.10;0.40;;;13.00;99.90;;;;;;4975557;28;20121;-71
2022/10/19 10:32:11;;;;;;;3.25;0.60;;;13.00;99.90;;;;;;4972874;28;20474;-71
2022/10/19 10:34:54;;;;;;;1.60;0.57;;;13.00;99.90;;;;;;4977610;28;20507;-70
2022/10/19 10:37:37;;;;;;;3.92;1.40;;;13.00;99.90;;;;;;4978435;28;20106;-71
2022/10/19 10:40:05;;;;;;;2.53;0.50;;;13.00;99.90;;;;;;4974505;28;20062;-70
2022/10/19 10:42:42;;;;;;;2.47;0.68;;;13.00;99.90;;;;;;4973864;28;20043;-71
2022/10/19 10:45:37;;;;;;;1.45;0.60;;;13.00;99.90;;;;;;4975059;28;20110;-71
2022/10/19 10:48:35;;;;;;;3.00;0.75;;;13.10;99.90;;;;;;4978444;28;20034;-71
2022/10/19 10:51:06;;;;;;;1.55;0.65;;;13.10;99.90;;;;;;4970163;28;20051;-70
2022/10/19 10:53:42;;;;;;;4.82;1.83;;;13.10;99.90;;;;;;4975463;28;20038;-71
2022/10/19 10:56:26;;;;;;;2.42;0.40;;;13.10;99.90;;;;;;4968802;28;20039;-70
2022/10/19 10:59:16;;;;;;;3.25;0.35;;;13.20;99.90;;;;;;4973354;28;20829;-71
2022/10/19 11:01:55;;;;;;;3.22;0.30;;;13.30;99.90;;;;;;4973031;28;20042;-71
2022/10/19 11:04:30;;;;;;;7.15;0.85;;;13.40;99.90;;;;;;4971567;28;20058;-71
2022/10/19 11:07:09;;;;;;;2.92;0.40;;;13.40;99.90;;;;;;4969575;28;20038;-69
2022/10/19 11:09:41;;;;;;;2.88;0.50;;;13.50;99.90;;;;;;4973786;28;20038;-70
2022/10/19 11:12:13;;;;;;;5.97;0.65;;;13.50;99.90;;;;;;4972846;28;20035;-70
2022/10/19 11:14:49;;;;;;;5.88;0.40;;;13.50;99.90;;;;;;4973117;28;20093;-69
2022/10/19 11:17:24;;;;;;;3.05;0.30;;;13.50;99.90;;;;;;4970820;28;20039;-69
2022/10/19 11:19:50;;;;;;;2.65;0.55;;;13.50;99.90;;;;;;4975586;28;20038;-70
2022/10/19 11:22:38;;;;;;;4.63;0.50;;;13.50;99.90;;;;;;4971579;28;20030;-70
2022/10/19 11:25:29;;;;;;;3.85;0.50;;;13.60;99.90;;;;;;4967787;28;20070;-71
2022/10/19 11:28:18;;;;;;;2.00;0.25;;;13.60;99.90;;;;;;4971326;28;20042;-71
2022/10/19 11:30:58;;;;;;;2.72;0.38;;;13.60;99.90;;;;;;4973573;28;20038;-72
2022/10/19 11:33:42;;;;;;;2.40;0.30;;;13.60;99.90;;;;;;4974749;28;20047;-70
2022/10/19 11:36:32;;;;;;;5.13;0.60;;;13.60;99.90;;;;;;4974530;28;20200;-70
2022/10/19 11:39:21;;;;;;;3.67;0.50;;;13.70;99.90;;;;;;4966394;28;20047;-71
2022/10/19 11:42:13;;;;;;;3.08;0.30;;;13.60;99.90;;;;;;4970518;28;20062;-70
2022/10/19 11:45:28;;;;;;;1.75;0.32;;;13.70;99.90;;;;;;4966794;28;20051;-70
2022/10/19 11:48:15;;;;;;;3.03;0.30;;;13.70;99.90;;;;;;4957863;28;20121;-71
2022/10/19 11:51:03;;;;;;;3.88;0.47;;;13.80;99.90;;;;;;4976104;28;20465;-70
2022/10/19 11:53:48;;;;;;;1.40;0.20;;;13.80;99.90;;;;;;4969553;28;20755;-70
2022/10/19 11:56:43;;;;;;;3.95;0.35;;;13.80;99.90;;;;;;4969231;28;20600;-70
2022/10/19 11:59:22;;;;;;;3.72;0.40;;;13.80;99.90;;;;;;4968340;28;20042;-71
2022/10/19 12:02:22;;;;;;;4.45;1.08;;;13.80;99.90;;;;;;4976806;28;20034;-71
2022/10/19 12:05:09;;;;;;;5.88;1.48;;;13.80;99.90;;;;;;4976993;28;20047;-70
2022/10/19 12:07:56;;;;;;;6.50;0.77;;;13.80;99.90;;;;;;4973168;28;20494;-70
2022/10/19 12:10:33;;;;;;;4.22;0.60;;;13.90;99.90;;;;;;4968288;28;20082;-69
2022/10/19 12:13:04;;;;;;;2.47;0.30;;;13.90;99.90;;;;;;4969083;28;20042;-69
2022/10/19 12:15:38;;;;;;;8.13;0.45;;;13.90;99.90;;;;;;4969138;28;20526;-71
2022/10/19 12:18:31;;;;;;;2.38;0.60;;;13.90;99.90;;;;;;4969379;28;20039;-70
2022/10/19 12:21:01;;;;;;;13.52;0.95;;;13.90;99.90;;;;;;4973765;28;20049;-69
2022/10/19 12:23:38;;;;;;;1.45;0.38;;;14.00;99.90;;;;;;4974502;28;20093;-73
2022/10/19 12:26:10;;;;;;;1.38;0.50;;;14.00;99.90;;;;;;4971544;28;20514;-71
2022/10/19 12:28:40;;;;;;;3.60;0.52;;;14.00;99.90;;;;;;4968160;28;20042;-71
2022/10/19 12:31:06;;;;;;;;;;;14.10;99.90;;;;;;4971640;28;20236;-71
2022/10/19 12:33:59;;;;;;;2.88;0.43;;;14.10;99.90;;;;;;4974615;28;19925;-71
2022/10/19 12:36:51;;;;;;;4.13;0.40;;;14.20;99.90;;;;;;4974411;28;20405;-69
2022/10/19 12:39:21;;;;;;;7.63;1.10;;;14.20;99.90;;;;;;4973807;28;20043;-69
2022/10/19 12:42:22;;;;;;;4.97;0.98;;;14.20;99.90;;;;;;4975751;28;20057;-70
2022/10/19 12:45:07;;;;;;;2.92;0.40;;;14.30;99.90;;;;;;4970875;28;20444;-70
2022/10/19 12:47:33;;;;;;;3.80;0.45;;;14.20;99.90;;;;;;4969185;28;20141;-70
2022/10/19 12:49:59;;;;;;;2.35;0.50;;;14.30;99.90;;;;;;4976372;28;20133;-69
2022/10/19 12:52:43;;;;;;;4.50;0.50;;;14.30;99.90;;;;;;4978572;28;20550;-70
2022/10/19 12:55:10;;;;;;;6.93;0.90;;;14.20;99.90;;;;;;4961229;28;20070;-70
2022/10/19 12:57:38;;;;;;;4.32;0.70;;;14.30;99.90;;;;;;4971179;28;20053;-71
2022/10/19 13:00:17;;;;;;;5.05;0.50;;;14.40;99.90;;;;;;4970425;28;20052;-70
2022/10/19 13:02:45;;;;;;;6.55;0.82;;;14.30;99.90;;;;;;4971246;28;20026;-69
2022/10/19 13:05:20;;;;;;;2.33;0.55;;;14.30;99.90;;;;;;4973975;28;20050;-70
2022/10/19 13:07:48;;;;;;;3.30;0.68;;;14.40;99.90;;;;;;4969684;28;20035;-70
2022/10/19 13:10:21;;;;;;;3.17;0.60;;;14.40;99.90;;;;;;4970320;28;20038;-71
2022/10/19 13:12:48;;;;;;;1.73;0.50;;;14.40;99.90;;;;;;4970558;28;20112;-70
2022/10/19 13:15:35;;;;;;;5.25;0.60;;;14.40;99.90;;;;;;4973615;28;20054;-69